Sisseton, SD

8:22 AM CST on December 27, 2014 (GMT -0600)
Sisseton | Change Station
CLOSE
Current Station
Airport
Location: Sisseton,
Elevation: 1161 ft
Nearby Weather Stations

Elev 1161 ft 45.67 °N, 96.99 °W | Updated 26 minutes ago

Clear
Clear
5 °F
Feels Like -2 °F
N
4
Wind Variable Wind from NNW
Gusts 15 mph

Today
High -- | Low -- °F
--% Chance of Precip.
Yesterday
High -- | Low -- °F
Precip. -- in
8:08 AM 4:50 PM
Waxing Crescent, 37% visible
Pressure 30.25 in
Visibility -9999.0 miles
Clouds
Windchill -2 °F
Dew Point 2 °F
Humidity 87%
Rainfall 0.00 in
Snow Depth Not available.
UV Not available.
Pollen .10 out of 12
Air Quality Not available.
Flu Activity Not available.
METAR K8D3 271356Z AUTO 33003KT M15/M17 A3013 RMK AO1 SLP243 T11501167

More Conditions Fewer Conditions

Pressure 30.25 in
Visibility -9999.0 miles
Clouds
Windchill -2 °F
Dew Point 2 °F
Humidity 87%
Rainfall 0.00 in
Snow Depth Not available.
UV Not available.
Pollen .10 out of 12
Air Quality Not available.
Flu Activity Not available.
METAR K8D3 271356Z AUTO 33003KT M15/M17 A3013 RMK AO1 SLP243 T11501167

More Conditions Fewer Conditions

10-Day Weather Forecast

Almanac

Astronomy

Dec. 27, 2014 Rise Set
Actual Time
Civil Twilight
Nautical Twilight
Astronomical Twilight
Moon
Length of Visible Light
Length of Day
Tomorrow will be .
, % of the Moon is Illuminated

Today's Extremes

State Highs State Lows

Community

WunderPhotos

Upload Photos

1,780,916 photos uploaded!

WunderBlogs® & News

Nearby

Air Quality

  Air Quality AQ Index Pollutant
Not available.

Snow Depth

Station Depth Elevation

Earthquake Activity

City Distance Mag. Time & Date
Minimum magnitude displayed is 2.5.

Coastal Water Temperatures

Place Temperature

Nearby Weather Stations